DTTJ

Details ICAO DTTJ (DJE)
Name Djerba Zarzis
Region Tunisia
Timezone Africa/Tunis (UTC+1.0)
Plans Departing 173
Arriving 254
Stats Elevation 18 ft / 5 m (AMSL)
Location 33.875447° 10.777153°
Runways 1
Magnetic Variation 2.368° E
Sunrise 2018-05-24 04:11:47 UTC / 2018-05-24 05:11:47 Local
Sunset 2018-05-24 18:18:32 UTC / 2018-05-24 19:18:32 Local
Advertisement - Login to hide

Runways

ID Width Length Bearing (true) Bearing (mag) Surface Threshold Offset Overrun Length
09 148 ft / 45 m 10,191 ft / 3,106 m 88.28° 85.91° Asphalt 0 ft / 0 m 197 ft / 60 m
27 148 ft / 45 m 10,191 ft / 3,106 m 268.30° 265.93° Asphalt 0 ft / 0 m 197 ft / 60 m

Approach Navaids

Runway Type Ident Frequency Range Bearing (true) Bearing (mag) Slope Elevation
09 Localiser JAZ 109.50 MHz 18 nm / 33 km 88.31° 85.94° - 18 ft / 5 m (AMSL)
09 Glidescope JAZ 109.50 MHz 10 nm / 19 km 88.29° 85.92° 3.00° 18 ft / 5 m (AMSL)

Map

Weather


0- 5 10 15 20 25 30 35+ Temperature / ° C

Clouds and Precipitation
Forecast for 2018-05-24 18:00 UTC. Updated 2 hours ago

Ground ~20,000 ft ~40,000 ft Winds

METAR

DTTJ 241930Z 08009KT CAVOK 21/15 Q1016 NOSIG

TAF

TAF DTTJ 241700Z 2418/2518 10012KT CAVOK TEMPO 2500/2507 07002KT

Frequencies

Tower 118.15 MHz DJERBA AIRPORT TWR
Approach 120.30 MHz DJERBA APP
Warning: Do not use this data for real-world aviation or navigation. No guarantee of current accuracy is given.